Terminal Aerodrome Forecast
Issued by NWS

Home | Current Version | Previous Version | Graphics & Text | Print | Product List | Glossary On
Versions: 1 2 3 4 5 6 7 8 9 10 11 12 13 14 15 16 17 18 19 20
000
FTUS43 KUNR 222320
TAFGCC
TAF
KGCC 222320Z 2300/2324 15015KT P6SM BKN025 OVC060
     FM230300 14011KT P6SM OVC015
     FM230800 11007KT 5SM -SHRA BR OVC008
     FM231500 13010KT P6SM BKN015=

USA.gov is the U.S. government's official web portal to all federal, state and local government web resources and services.